Time,TemperatureF,DewpointF,PressureIn,WindDirection,WindDirectionDegrees,WindSpeedMPH,WindSpeedGustMPH,Humidity,HourlyPrecipIn,Conditions,Clouds,dailyrainin,SoftwareType,DateUTC
2015-08-04 00:01:00,65.5,64.9,29.80,ESE,105,0.0,0.0,98,0.00,,,0.00,Wunderground v.1.15,2015-08-04 04:01:00,
2015-08-04 00:07:00,65.5,64.9,29.80,ESE,105,0.0,0.0,98,0.00,,,0.00,Wunderground v.1.15,2015-08-04 04:07:00,
2015-08-04 00:12:00,65.4,64.8,29.80,ESE,105,0.0,2.0,98,0.00,,,0.00,Wunderground v.1.15,2015-08-04 04:12:00,
2015-08-04 00:18:00,65.5,64.9,29.80,NE,42,3.0,5.0,98,0.00,,,0.00,Wunderground v.1.15,2015-08-04 04:18:00,
2015-08-04 00:23:00,65.5,64.9,29.80,NE,41,2.0,3.0,98,0.00,,,0.00,Wunderground v.1.15,2015-08-04 04:23:00,
2015-08-04 00:29:00,65.5,64.9,29.80,NE,42,0.0,3.0,98,0.00,,,0.00,Wunderground v.1.15,2015-08-04 04:29:00,
2015-08-04 00:35:00,65.6,65.0,29.79,NE,42,0.0,1.0,98,0.00,,,0.00,Wunderground v.1.15,2015-08-04 04:35:00,
2015-08-04 00:40:00,65.5,64.9,29.79,NE,42,0.0,0.0,98,0.00,,,0.00,Wunderground v.1.15,2015-08-04 04:40:00,
2015-08-04 00:46:00,65.6,65.0,29.80,NE,42,0.0,0.0,98,0.00,,,0.00,Wunderground v.1.15,2015-08-04 04:46:00,
2015-08-04 00:51:00,65.4,64.8,29.79,NE,42,0.0,0.0,98,0.00,,,0.00,Wunderground v.1.15,2015-08-04 04:51:00,
2015-08-04 00:57:00,65.3,64.7,29.78,NE,42,0.0,1.0,98,0.00,,,0.00,Wunderground v.1.15,2015-08-04 04:57:00,
2015-08-04 01:03:00,65.2,64.6,29.78,NE,42,0.0,0.0,98,0.00,,,0.00,Wunderground v.1.15,2015-08-04 05:03:00,
2015-08-04 01:08:00,65.1,64.5,29.78,NE,41,1.0,2.0,98,0.00,,,0.00,Wunderground v.1.15,2015-08-04 05:08:00,
2015-08-04 01:14:00,65.4,65.1,29.78,NE,42,1.0,1.0,99,0.00,,,0.00,Wunderground v.1.15,2015-08-04 05:14:00,
2015-08-04 01:20:00,65.5,65.2,29.77,NE,42,0.0,0.0,99,0.00,,,0.00,Wunderground v.1.15,2015-08-04 05:20:00,
2015-08-04 01:25:00,65.3,64.7,29.78,NE,42,0.0,0.0,98,0.00,,,0.00,Wunderground v.1.15,2015-08-04 05:25:00,
2015-08-04 01:31:00,65.3,64.7,29.78,NE,42,0.0,0.0,98,0.00,,,0.00,Wunderground v.1.15,2015-08-04 05:31:00,
2015-08-04 01:36:00,65.0,64.4,29.78,NE,42,0.0,0.0,98,0.00,,,0.00,Wunderground v.1.15,2015-08-04 05:36:00,
2015-08-04 01:42:00,65.0,64.4,29.77,NE,42,0.0,0.0,98,0.00,,,0.00,Wunderground v.1.15,2015-08-04 05:42:00,
2015-08-04 01:48:00,64.8,64.2,29.77,NE,42,0.0,0.0,98,0.00,,,0.00,Wunderground v.1.15,2015-08-04 05:48:00,
2015-08-04 01:54:00,64.6,64.0,29.77,NE,42,0.0,0.0,98,0.00,,,0.00,Wunderground v.1.15,2015-08-04 05:54:00,
2015-08-04 01:59:00,64.6,64.0,29.77,NE,42,0.0,0.0,98,0.00,,,0.00,Wunderground v.1.15,2015-08-04 05:59:00,
2015-08-04 02:04:00,64.3,63.7,29.77,NE,42,0.0,0.0,98,0.00,,,0.00,Wunderground v.1.15,2015-08-04 06:04:00,
2015-08-04 02:09:00,64.1,63.5,29.77,NE,42,0.0,1.0,98,0.00,,,0.00,Wunderground v.1.15,2015-08-04 06:09:00,
2015-08-04 02:14:00,64.1,63.8,29.78,NE,42,0.0,0.0,99,0.00,,,0.00,Wunderground v.1.15,2015-08-04 06:14:00,
2015-08-04 02:19:00,63.9,63.3,29.78,NE,42,0.0,0.0,98,0.00,,,0.00,Wunderground v.1.15,2015-08-04 06:19:00,
2015-08-04 02:24:00,63.8,63.2,29.78,NE,42,0.0,0.0,98,0.00,,,0.00,Wunderground v.1.15,2015-08-04 06:24:00,
2015-08-04 02:29:00,63.8,63.5,29.78,NE,42,0.0,0.0,99,0.00,,,0.00,Wunderground v.1.15,2015-08-04 06:29:00,
2015-08-04 02:34:00,63.7,63.4,29.78,NE,42,0.0,1.0,99,0.00,,,0.00,Wunderground v.1.15,2015-08-04 06:34:00,
2015-08-04 02:39:00,63.2,62.6,29.78,NE,42,0.0,1.0,98,0.00,,,0.00,Wunderground v.1.15,2015-08-04 06:39:00,
2015-08-04 02:44:00,62.8,62.2,29.78,NE,42,0.0,0.0,98,0.00,,,0.00,Wunderground v.1.15,2015-08-04 06:44:00,
2015-08-04 02:49:00,62.8,62.2,29.78,NE,42,0.0,0.0,98,0.00,,,0.00,Wunderground v.1.15,2015-08-04 06:49:00,
2015-08-04 02:54:00,62.8,62.2,29.78,NE,42,0.0,1.0,98,0.00,,,0.00,Wunderground v.1.15,2015-08-04 06:54:00,
2015-08-04 02:59:00,63.0,62.7,29.79,NE,42,0.0,1.0,99,0.00,,,0.00,Wunderground v.1.15,2015-08-04 06:59:00,
2015-08-04 03:04:00,62.9,62.6,29.79,NE,42,0.0,0.0,99,0.00,,,0.00,Wunderground v.1.15,2015-08-04 07:04:00,
2015-08-04 03:09:00,62.8,62.5,29.79,NE,42,0.0,0.0,99,0.00,,,0.00,Wunderground v.1.15,2015-08-04 07:09:00,
2015-08-04 03:14:00,62.3,62.0,29.79,NE,42,0.0,0.0,99,0.00,,,0.00,Wunderground v.1.15,2015-08-04 07:14:00,
2015-08-04 03:19:00,61.9,61.3,29.79,NE,42,0.0,0.0,98,0.00,,,0.00,Wunderground v.1.15,2015-08-04 07:19:00,
2015-08-04 03:24:00,62.0,61.7,29.79,NE,42,0.0,1.0,99,0.00,,,0.01,Wunderground v.1.15,2015-08-04 07:24:00,
2015-08-04 03:29:00,61.9,61.6,29.79,NE,42,0.0,1.0,99,0.00,,,0.01,Wunderground v.1.15,2015-08-04 07:29:00,
2015-08-04 03:34:00,61.6,61.3,29.80,NE,42,0.0,1.0,99,0.00,,,0.01,Wunderground v.1.15,2015-08-04 07:34:00,
2015-08-04 03:39:00,61.7,61.4,29.79,NE,42,0.0,1.0,99,0.00,,,0.01,Wunderground v.1.15,2015-08-04 07:39:00,
2015-08-04 03:44:00,61.6,61.3,29.79,NE,42,0.0,0.0,99,0.00,,,0.01,Wunderground v.1.15,2015-08-04 07:44:00,
2015-08-04 03:49:00,61.7,61.4,29.79,NE,42,0.0,0.0,99,0.00,,,0.01,Wunderground v.1.15,2015-08-04 07:49:00,
2015-08-04 03:54:00,61.6,61.3,29.78,NE,42,0.0,0.0,99,0.00,,,0.01,Wunderground v.1.15,2015-08-04 07:54:00,
2015-08-04 04:04:00,61.2,60.9,29.78,NE,42,0.0,0.0,99,0.00,,,0.01,Wunderground v.1.15,2015-08-04 08:04:00,
2015-08-04 04:09:00,61.0,60.7,29.79,NE,42,0.0,0.0,99,0.00,,,0.01,Wunderground v.1.15,2015-08-04 08:09:00,
2015-08-04 04:14:00,60.2,59.6,29.79,NE,42,0.0,0.0,98,0.00,,,0.01,Wunderground v.1.15,2015-08-04 08:14:00,
2015-08-04 04:19:00,60.3,60.0,29.79,NE,42,0.0,0.0,99,0.00,,,0.01,Wunderground v.1.15,2015-08-04 08:19:00,
2015-08-04 04:24:00,60.7,60.4,29.79,NE,42,0.0,0.0,99,0.00,,,0.01,Wunderground v.1.15,2015-08-04 08:24:00,
2015-08-04 04:29:00,60.9,60.6,29.79,NE,42,0.0,0.0,99,0.00,,,0.01,Wunderground v.1.15,2015-08-04 08:29:00,
2015-08-04 04:34:00,60.9,60.6,29.79,NE,42,0.0,0.0,99,0.00,,,0.01,Wunderground v.1.15,2015-08-04 08:34:00,
2015-08-04 04:39:00,60.6,60.3,29.79,NE,42,0.0,0.0,99,0.00,,,0.01,Wunderground v.1.15,2015-08-04 08:39:00,
2015-08-04 04:44:00,60.5,60.2,29.79,NE,42,0.0,0.0,99,0.00,,,0.01,Wunderground v.1.15,2015-08-04 08:44:00,
2015-08-04 04:49:00,60.7,60.4,29.80,NE,42,0.0,0.0,99,0.00,,,0.01,Wunderground v.1.15,2015-08-04 08:49:00,
2015-08-04 04:54:00,60.4,60.1,29.80,NE,42,0.0,1.0,99,0.00,,,0.01,Wunderground v.1.15,2015-08-04 08:54:00,
2015-08-04 05:04:00,59.8,59.5,29.80,NE,42,0.0,0.0,99,0.00,,,0.01,Wunderground v.1.15,2015-08-04 09:04:00,
2015-08-04 05:09:00,59.8,59.5,29.80,NE,42,0.0,0.0,99,0.00,,,0.01,Wunderground v.1.15,2015-08-04 09:09:00,
2015-08-04 05:14:00,59.8,59.5,29.80,NE,42,0.0,0.0,99,0.00,,,0.01,Wunderground v.1.15,2015-08-04 09:14:00,
2015-08-04 05:19:00,59.8,59.5,29.80,NE,42,0.0,0.0,99,0.00,,,0.01,Wunderground v.1.15,2015-08-04 09:19:00,
2015-08-04 05:24:00,59.7,59.4,29.80,NE,42,0.0,0.0,99,0.00,,,0.01,Wunderground v.1.15,2015-08-04 09:24:00,
2015-08-04 05:29:00,59.9,59.6,29.80,NE,42,0.0,0.0,99,0.00,,,0.01,Wunderground v.1.15,2015-08-04 09:29:00,
2015-08-04 05:34:00,60.2,59.9,29.81,NE,42,0.0,1.0,99,0.00,,,0.01,Wunderground v.1.15,2015-08-04 09:34:00,
2015-08-04 05:39:00,60.3,60.0,29.81,NE,42,0.0,1.0,99,0.00,,,0.01,Wunderground v.1.15,2015-08-04 09:39:00,
2015-08-04 05:45:00,60.4,60.1,29.81,NE,42,0.0,0.0,99,0.00,,,0.01,Wunderground v.1.15,2015-08-04 09:45:00,
2015-08-04 05:50:00,60.3,60.0,29.82,NE,42,0.0,0.0,99,0.00,,,0.01,Wunderground v.1.15,2015-08-04 09:50:00,
2015-08-04 05:55:00,60.3,60.0,29.81,NE,42,0.0,0.0,99,0.00,,,0.01,Wunderground v.1.15,2015-08-04 09:55:00,
2015-08-04 06:00:00,60.3,60.0,29.82,NE,42,0.0,0.0,99,0.00,,,0.01,Wunderground v.1.15,2015-08-04 10:00:00,
2015-08-04 06:05:00,60.5,60.2,29.81,NE,42,0.0,0.0,99,0.00,,,0.01,Wunderground v.1.15,2015-08-04 10:05:00,
2015-08-04 06:10:00,60.7,60.4,29.82,NE,42,0.0,0.0,99,0.00,,,0.01,Wunderground v.1.15,2015-08-04 10:10:00,
2015-08-04 06:15:00,60.8,60.5,29.82,NE,42,0.0,0.0,99,0.00,,,0.01,Wunderground v.1.15,2015-08-04 10:15:00,
2015-08-04 06:20:00,60.9,60.6,29.82,NE,42,0.0,0.0,99,0.00,,,0.01,Wunderground v.1.15,2015-08-04 10:20:00,
2015-08-04 06:25:00,61.1,60.8,29.82,NE,42,0.0,1.0,99,0.00,,,0.01,Wunderground v.1.15,2015-08-04 10:25:00,
2015-08-04 06:30:00,61.3,61.0,29.82,NE,42,0.0,0.0,99,0.00,,,0.01,Wunderground v.1.15,2015-08-04 10:30:00,
2015-08-04 06:35:00,61.4,61.1,29.82,NE,42,0.0,0.0,99,0.00,,,0.01,Wunderground v.1.15,2015-08-04 10:35:00,
2015-08-04 06:40:00,61.6,61.3,29.81,NE,42,0.0,1.0,99,0.00,,,0.01,Wunderground v.1.15,2015-08-04 10:40:00,
2015-08-04 06:55:00,62.5,62.2,29.80,NE,42,0.0,0.0,99,0.00,,,0.01,Wunderground v.1.15,2015-08-04 10:55:00,
2015-08-04 07:00:00,62.9,62.6,29.79,NE,42,0.0,1.0,99,0.00,,,0.01,Wunderground v.1.15,2015-08-04 11:00:00,
2015-08-04 07:05:00,63.1,62.8,29.79,NE,42,0.0,1.0,99,0.00,,,0.01,Wunderground v.1.15,2015-08-04 11:05:00,
2015-08-04 07:10:00,63.7,63.4,29.80,NE,42,0.0,0.0,99,0.00,,,0.01,Wunderground v.1.15,2015-08-04 11:10:00,
2015-08-04 07:15:00,64.4,64.4,29.80,NE,42,0.0,2.0,100,0.00,,,0.01,Wunderground v.1.15,2015-08-04 11:15:00,
2015-08-04 07:20:00,64.5,64.2,29.79,NE,42,0.0,0.0,99,0.00,,,0.01,Wunderground v.1.15,2015-08-04 11:20:00,
2015-08-04 07:25:00,64.8,64.5,29.80,NE,42,1.0,1.0,99,0.00,,,0.01,Wunderground v.1.15,2015-08-04 11:25:00,
2015-08-04 07:30:00,65.5,65.2,29.80,NE,42,0.0,0.0,99,0.00,,,0.01,Wunderground v.1.15,2015-08-04 11:30:00,
2015-08-04 07:35:00,65.7,65.7,29.80,NE,42,1.0,1.0,100,0.00,,,0.01,Wunderground v.1.15,2015-08-04 11:35:00,
2015-08-04 07:40:00,65.9,65.6,29.80,NE,42,0.0,0.0,99,0.00,,,0.01,Wunderground v.1.15,2015-08-04 11:40:00,
2015-08-04 07:45:00,66.1,65.8,29.81,NE,42,0.0,1.0,99,0.00,,,0.01,Wunderground v.1.15,2015-08-04 11:45:00,
2015-08-04 07:50:00,65.9,65.6,29.81,NE,42,1.0,2.0,99,0.00,,,0.01,Wunderground v.1.15,2015-08-04 11:50:00,
2015-08-04 07:55:00,66.1,65.8,29.81,NE,42,0.0,2.0,99,0.00,,,0.01,Wunderground v.1.15,2015-08-04 11:55:00,
2015-08-04 08:00:00,66.2,66.2,29.82,NE,42,0.0,0.0,100,0.00,,,0.01,Wunderground v.1.15,2015-08-04 12:00:00,
2015-08-04 08:05:00,66.3,66.0,29.82,NE,42,0.0,0.0,99,0.00,,,0.01,Wunderground v.1.15,2015-08-04 12:05:00,
2015-08-04 08:10:00,66.5,66.2,29.82,NE,42,0.0,0.0,99,0.00,,,0.01,Wunderground v.1.15,2015-08-04 12:10:00,
2015-08-04 08:15:00,66.6,66.3,29.82,NE,42,1.0,2.0,99,0.00,,,0.01,Wunderground v.1.15,2015-08-04 12:15:00,
2015-08-04 08:20:00,66.7,66.4,29.82,NE,42,0.0,0.0,99,0.00,,,0.01,Wunderground v.1.15,2015-08-04 12:20:00,
2015-08-04 08:25:00,67.0,66.7,29.82,NE,42,0.0,1.0,99,0.00,,,0.01,Wunderground v.1.15,2015-08-04 12:25:00,
2015-08-04 08:30:00,67.1,66.8,29.82,NE,42,0.0,1.0,99,0.00,,,0.01,Wunderground v.1.15,2015-08-04 12:30:00,
2015-08-04 08:35:00,67.1,66.8,29.83,NE,42,0.0,1.0,99,0.00,,,0.01,Wunderground v.1.15,2015-08-04 12:35:00,
2015-08-04 08:40:00,67.0,66.7,29.83,NE,42,0.0,1.0,99,0.00,,,0.01,Wunderground v.1.15,2015-08-04 12:40:00,
2015-08-04 08:45:00,67.0,66.7,29.83,NE,42,0.0,2.0,99,0.00,,,0.01,Wunderground v.1.15,2015-08-04 12:45:00,
2015-08-04 08:50:00,66.9,66.6,29.83,NE,43,0.0,2.0,99,0.00,,,0.01,Wunderground v.1.15,2015-08-04 12:50:00,
2015-08-04 08:55:00,67.0,66.7,29.83,SSE,155,0.0,5.0,99,0.00,,,0.01,Wunderground v.1.15,2015-08-04 12:55:00,
2015-08-04 09:00:00,67.0,66.7,29.83,ESE,115,4.0,4.0,99,0.00,,,0.01,Wunderground v.1.15,2015-08-04 13:00:00,
2015-08-04 09:05:00,67.2,66.9,29.82,ESE,119,1.0,4.0,99,0.00,,,0.01,Wunderground v.1.15,2015-08-04 13:05:00,
2015-08-04 09:10:00,67.2,66.9,29.83,ESE,119,2.0,2.0,99,0.00,,,0.01,Wunderground v.1.15,2015-08-04 13:10:00,
2015-08-04 09:15:00,67.3,67.0,29.83,ESE,119,0.0,2.0,99,0.00,,,0.01,Wunderground v.1.15,2015-08-04 13:15:00,
2015-08-04 09:20:00,67.4,67.1,29.83,ESE,119,0.0,0.0,99,0.00,,,0.01,Wunderground v.1.15,2015-08-04 13:20:00,
2015-08-04 09:25:00,67.6,67.3,29.83,ESE,119,0.0,0.0,99,0.00,,,0.01,Wunderground v.1.15,2015-08-04 13:25:00,
2015-08-04 09:30:00,67.7,67.4,29.82,ESE,119,0.0,0.0,99,0.00,,,0.01,Wunderground v.1.15,2015-08-04 13:30:00,
2015-08-04 09:36:00,67.9,67.6,29.83,ESE,119,0.0,1.0,99,0.00,,,0.01,Wunderground v.1.15,2015-08-04 13:36:00,
2015-08-04 09:41:00,68.2,67.9,29.82,ESE,119,0.0,1.0,99,0.00,,,0.01,Wunderground v.1.15,2015-08-04 13:41:00,
2015-08-04 09:46:00,68.3,68.0,29.82,SSE,159,0.0,4.0,99,0.00,,,0.01,Wunderground v.1.15,2015-08-04 13:46:00,
2015-08-04 09:51:00,68.5,67.9,29.83,SSW,207,1.0,3.0,98,0.00,,,0.01,Wunderground v.1.15,2015-08-04 13:51:00,
2015-08-04 09:56:00,68.9,68.3,29.84,South,182,0.0,3.0,98,0.00,,,0.01,Wunderground v.1.15,2015-08-04 13:56:00,
2015-08-04 10:01:00,69.2,68.6,29.84,SW,219,2.0,5.0,98,0.00,,,0.01,Wunderground v.1.15,2015-08-04 14:01:00,
2015-08-04 10:06:00,69.5,68.6,29.84,South,183,1.0,5.0,97,0.00,,,0.01,Wunderground v.1.15,2015-08-04 14:06:00,
2015-08-04 10:11:00,70.0,68.8,29.84,SSE,157,4.0,5.0,96,0.00,,,0.01,Wunderground v.1.15,2015-08-04 14:11:00,
2015-08-04 10:16:00,70.6,69.1,29.84,South,172,0.0,5.0,95,0.00,,,0.01,Wunderground v.1.15,2015-08-04 14:16:00,
2015-08-04 10:21:00,70.8,68.7,29.84,South,169,0.0,1.0,93,0.00,,,0.01,Wunderground v.1.15,2015-08-04 14:21:00,
2015-08-04 10:26:00,71.0,68.6,29.84,SSE,155,2.0,4.0,92,0.00,,,0.01,Wunderground v.1.15,2015-08-04 14:26:00,
2015-08-04 10:31:00,71.7,69.3,29.84,SW,217,0.0,3.0,92,0.00,,,0.01,Wunderground v.1.15,2015-08-04 14:31:00,
2015-08-04 10:36:00,72.5,69.7,29.84,SSW,201,1.0,4.0,91,0.00,,,0.01,Wunderground v.1.15,2015-08-04 14:36:00,
2015-08-04 10:41:00,73.4,71.3,29.84,SSE,155,4.0,7.0,93,0.00,,,0.01,Wunderground v.1.15,2015-08-04 14:41:00,
2015-08-04 10:46:00,73.9,70.8,29.84,SE,140,1.0,7.0,90,0.00,,,0.01,Wunderground v.1.15,2015-08-04 14:46:00,
2015-08-04 10:51:00,74.0,70.6,29.84,SE,138,2.0,2.0,89,0.00,,,0.01,Wunderground v.1.15,2015-08-04 14:51:00,
2015-08-04 10:56:00,74.5,70.0,29.84,SE,138,5.0,8.0,86,0.00,,,0.01,Wunderground v.1.15,2015-08-04 14:56:00,
2015-08-04 11:01:00,74.4,69.9,29.83,SSE,155,0.0,4.0,86,0.00,,,0.01,Wunderground v.1.15,2015-08-04 15:01:00,
2015-08-04 11:06:00,75.0,70.5,29.83,ESE,103,2.0,7.0,86,0.00,,,0.01,Wunderground v.1.15,2015-08-04 15:06:00,
2015-08-04 11:11:00,75.2,70.0,29.83,SSE,158,5.0,5.0,84,0.00,,,0.01,Wunderground v.1.15,2015-08-04 15:11:00,
2015-08-04 11:16:00,75.4,70.2,29.83,South,190,1.0,5.0,84,0.00,,,0.01,Wunderground v.1.15,2015-08-04 15:16:00,
2015-08-04 11:21:00,75.9,70.7,29.83,SE,130,2.0,7.0,84,0.00,,,0.01,Wunderground v.1.15,2015-08-04 15:21:00,
2015-08-04 11:26:00,76.6,71.0,29.82,ESE,112,1.0,7.0,83,0.00,,,0.01,Wunderground v.1.15,2015-08-04 15:26:00,
2015-08-04 11:31:00,77.0,71.4,29.82,SSW,206,1.0,5.0,83,0.00,,,0.01,Wunderground v.1.15,2015-08-04 15:31:00,
2015-08-04 11:36:00,77.1,71.5,29.82,SW,225,0.0,7.0,83,0.00,,,0.01,Wunderground v.1.15,2015-08-04 15:36:00,
2015-08-04 11:41:00,77.5,70.1,29.82,SW,221,0.0,6.0,78,0.00,,,0.01,Wunderground v.1.15,2015-08-04 15:41:00,
2015-08-04 11:46:00,77.6,70.9,29.82,SE,128,5.0,8.0,80,0.00,,,0.01,Wunderground v.1.15,2015-08-04 15:46:00,
2015-08-04 11:51:00,77.8,69.6,29.82,SE,144,2.0,6.0,76,0.00,,,0.01,Wunderground v.1.15,2015-08-04 15:51:00,
2015-08-04 11:56:00,78.0,70.6,29.82,SSW,208,3.0,10.0,78,0.00,,,0.01,Wunderground v.1.15,2015-08-04 15:56:00,
2015-08-04 12:01:00,78.1,70.3,29.81,SW,234,3.0,9.0,77,0.00,,,0.01,Wunderground v.1.15,2015-08-04 16:01:00,
2015-08-04 12:06:00,78.1,69.1,29.81,SSW,208,4.0,9.0,74,0.00,,,0.01,Wunderground v.1.15,2015-08-04 16:06:00,
2015-08-04 12:11:00,78.8,69.4,29.81,SSW,201,4.0,5.0,73,0.00,,,0.01,Wunderground v.1.15,2015-08-04 16:11:00,
2015-08-04 12:16:00,78.7,68.5,29.81,South,174,7.0,15.0,71,0.00,,,0.01,Wunderground v.1.15,2015-08-04 16:16:00,
2015-08-04 12:21:00,79.0,68.0,29.80,SW,226,8.0,9.0,69,0.00,,,0.01,Wunderground v.1.15,2015-08-04 16:21:00,
2015-08-04 12:26:00,79.8,68.3,29.80,SSW,213,5.0,9.0,68,0.00,,,0.01,Wunderground v.1.15,2015-08-04 16:26:00,
2015-08-04 12:31:00,80.0,67.2,29.80,SSE,161,4.0,8.0,65,0.00,,,0.01,Wunderground v.1.15,2015-08-04 16:31:00,
2015-08-04 12:36:00,80.6,69.5,29.79,WSW,248,3.0,8.0,69,0.00,,,0.01,Wunderground v.1.15,2015-08-04 16:36:00,
2015-08-04 12:41:00,81.2,68.8,29.79,SW,227,8.0,12.0,66,0.00,,,0.01,Wunderground v.1.15,2015-08-04 16:41:00,
2015-08-04 12:46:00,81.0,67.7,29.79,SSW,194,7.0,12.0,64,0.00,,,0.01,Wunderground v.1.15,2015-08-04 16:46:00,
2015-08-04 12:51:00,80.6,67.7,29.79,SW,230,7.0,11.0,65,0.00,,,0.01,Wunderground v.1.15,2015-08-04 16:51:00,
2015-08-04 12:56:00,81.2,68.3,29.78,WSW,257,2.0,11.0,65,0.00,,,0.01,Wunderground v.1.15,2015-08-04 16:56:00,
2015-08-04 13:01:00,81.5,68.1,29.78,SSE,150,0.0,9.0,64,0.00,,,0.01,Wunderground v.1.15,2015-08-04 17:01:00,
2015-08-04 13:06:00,81.8,70.2,29.78,SW,229,7.0,11.0,68,0.00,,,0.01,Wunderground v.1.15,2015-08-04 17:06:00,
2015-08-04 13:11:00,81.6,67.8,29.78,West,274,0.0,6.0,63,0.00,,,0.01,Wunderground v.1.15,2015-08-04 17:11:00,
2015-08-04 13:21:00,81.5,69.0,29.78,SSE,165,4.0,4.0,66,0.00,,,0.01,Wunderground v.1.15,2015-08-04 17:21:00,
2015-08-04 13:26:00,82.2,70.1,29.78,WSW,238,6.0,12.0,67,0.00,,,0.01,Wunderground v.1.15,2015-08-04 17:26:00,
2015-08-04 13:36:00,81.7,67.9,29.78,South,170,7.0,14.0,63,0.00,,,0.01,Wunderground v.1.15,2015-08-04 17:36:00,
2015-08-04 13:41:00,82.2,69.7,29.78,WSW,238,3.0,9.0,66,0.00,,,0.01,Wunderground v.1.15,2015-08-04 17:41:00,